sensor_id;sensor_type;location;lat;lon;timestamp;pressure;altitude;pressure_sealevel;temperature;humidity
70200;BME280;57587;55.688;37.600;2024-01-30T00:01:21;100578.81;;;0.99;67.94
70200;BME280;57587;55.688;37.600;2024-01-30T00:03:49;100578.44;;;1.05;67.39
70200;BME280;57587;55.688;37.600;2024-01-30T00:06:21;100573.88;;;0.94;67.22
70200;BME280;57587;55.688;37.600;2024-01-30T00:08:48;100585.25;;;0.95;67.63
70200;BME280;57587;55.688;37.600;2024-01-30T00:11:16;100597.28;;;0.99;67.75
70200;BME280;57587;55.688;37.600;2024-01-30T00:13:43;100592.94;;;0.98;67.65
70200;BME280;57587;55.688;37.600;2024-01-30T00:16:23;100594.28;;;0.90;67.35
70200;BME280;57587;55.688;37.600;2024-01-30T00:18:53;100600.28;;;0.92;67.47
70200;BME280;57587;55.688;37.600;2024-01-30T00:21:21;100605.19;;;0.99;68.58
70200;BME280;57587;55.688;37.600;2024-01-30T00:23:49;100595.41;;;1.01;67.21
70200;BME280;57587;55.688;37.600;2024-01-30T00:26:16;100589.28;;;1.00;67.14
70200;BME280;57587;55.688;37.600;2024-01-30T00:28:43;100589.16;;;1.02;67.68
70200;BME280;57587;55.688;37.600;2024-01-30T00:31:11;100589.72;;;1.07;67.18
70200;BME280;57587;55.688;37.600;2024-01-30T00:33:40;100580.69;;;1.11;67.35
70200;BME280;57587;55.688;37.600;2024-01-30T00:36:09;100581.63;;;1.10;67.18
70200;BME280;57587;55.688;37.600;2024-01-30T00:38:37;100578.59;;;1.16;67.47
70200;BME280;57587;55.688;37.600;2024-01-30T00:41:04;100575.31;;;1.12;67.38
70200;BME280;57587;55.688;37.600;2024-01-30T00:43:31;100571.53;;;1.17;67.58
70200;BME280;57587;55.688;37.600;2024-01-30T00:45:59;100568.25;;;1.13;66.98
70200;BME280;57587;55.688;37.600;2024-01-30T00:48:26;100569.00;;;1.15;67.59
70200;BME280;57587;55.688;37.600;2024-01-30T00:50:53;100568.53;;;1.08;67.60
70200;BME280;57587;55.688;37.600;2024-01-30T00:53:21;100567.50;;;1.11;67.41
70200;BME280;57587;55.688;37.600;2024-01-30T00:55:48;100578.41;;;1.19;67.07
70200;BME280;57587;55.688;37.600;2024-01-30T00:58:15;100570.31;;;1.08;67.17
70200;BME280;57587;55.688;37.600;2024-01-30T01:00:42;100579.75;;;1.12;67.33
70200;BME280;57587;55.688;37.600;2024-01-30T01:03:09;100566.38;;;1.15;67.26
70200;BME280;57587;55.688;37.600;2024-01-30T01:05:37;100569.53;;;1.20;67.32
70200;BME280;57587;55.688;37.600;2024-01-30T01:08:04;100561.34;;;1.25;67.11
70200;BME280;57587;55.688;37.600;2024-01-30T01:10:31;100563.88;;;1.26;67.02
70200;BME280;57587;55.688;37.600;2024-01-30T01:12:59;100565.97;;;1.21;67.09
70200;BME280;57587;55.688;37.600;2024-01-30T01:15:26;100560.19;;;1.29;67.01
70200;BME280;57587;55.688;37.600;2024-01-30T01:17:56;100563.47;;;1.32;66.73
70200;BME280;57587;55.688;37.600;2024-01-30T01:20:23;100564.97;;;1.36;66.88
70200;BME280;57587;55.688;37.600;2024-01-30T01:22:50;100571.63;;;1.42;66.62
70200;BME280;57587;55.688;37.600;2024-01-30T01:25:19;100557.38;;;1.45;66.22
70200;BME280;57587;55.688;37.600;2024-01-30T01:27:46;100551.59;;;1.40;66.06
70200;BME280;57587;55.688;37.600;2024-01-30T01:30:19;100544.94;;;1.34;67.02
70200;BME280;57587;55.688;37.600;2024-01-30T01:32:49;100552.41;;;1.27;67.43
70200;BME280;57587;55.688;37.600;2024-01-30T01:35:28;100552.47;;;1.26;67.46
70200;BME280;57587;55.688;37.600;2024-01-30T01:37:55;100538.75;;;1.21;67.28
70200;BME280;57587;55.688;37.600;2024-01-30T01:40:23;100543.28;;;1.19;67.17
70200;BME280;57587;55.688;37.600;2024-01-30T01:42:51;100543.81;;;1.24;67.27
70200;BME280;57587;55.688;37.600;2024-01-30T01:45:20;100529.91;;;1.22;67.03
70200;BME280;57587;55.688;37.600;2024-01-30T01:47:51;100537.09;;;1.32;67.51
70200;BME280;57587;55.688;37.600;2024-01-30T01:50:20;100544.09;;;1.33;66.78
70200;BME280;57587;55.688;37.600;2024-01-30T01:52:48;100524.47;;;1.37;66.90
70200;BME280;57587;55.688;37.600;2024-01-30T01:55:17;100526.16;;;1.38;67.24
70200;BME280;57587;55.688;37.600;2024-01-30T01:57:48;100528.06;;;1.36;66.77
70200;BME280;57587;55.688;37.600;2024-01-30T02:00:16;100527.00;;;1.39;67.31
70200;BME280;57587;55.688;37.600;2024-01-30T02:02:45;100522.78;;;1.36;66.48
70200;BME280;57587;55.688;37.600;2024-01-30T02:05:12;100526.91;;;1.41;66.88
70200;BME280;57587;55.688;37.600;2024-01-30T02:07:40;100523.00;;;1.33;67.26
70200;BME280;57587;55.688;37.600;2024-01-30T02:10:08;100522.78;;;1.36;67.02
70200;BME280;57587;55.688;37.600;2024-01-30T02:12:37;100508.66;;;1.37;67.37
70200;BME280;57587;55.688;37.600;2024-01-30T02:15:05;100519.94;;;1.40;67.37
70200;BME280;57587;55.688;37.600;2024-01-30T02:17:39;100518.13;;;1.27;67.52
70200;BME280;57587;55.688;37.600;2024-01-30T02:20:06;100524.66;;;1.34;67.65
70200;BME280;57587;55.688;37.600;2024-01-30T02:22:34;100525.94;;;1.42;67.38
70200;BME280;57587;55.688;37.600;2024-01-30T02:25:03;100519.34;;;1.49;67.25
70200;BME280;57587;55.688;37.600;2024-01-30T02:27:30;100511.09;;;1.53;66.83
70200;BME280;57587;55.688;37.600;2024-01-30T02:29:57;100516.06;;;1.58;67.08
70200;BME280;57587;55.688;37.600;2024-01-30T02:32:25;100518.81;;;1.56;67.03
70200;BME280;57587;55.688;37.600;2024-01-30T02:34:52;100519.16;;;1.65;66.98
70200;BME280;57587;55.688;37.600;2024-01-30T02:37:19;100519.66;;;1.70;67.09
70200;BME280;57587;55.688;37.600;2024-01-30T02:39:46;100510.38;;;1.64;66.88
70200;BME280;57587;55.688;37.600;2024-01-30T02:42:13;100515.63;;;1.64;66.70
70200;BME280;57587;55.688;37.600;2024-01-30T02:44:40;100513.66;;;1.68;66.83
70200;BME280;57587;55.688;37.600;2024-01-30T02:47:07;100517.97;;;1.69;67.00
70200;BME280;57587;55.688;37.600;2024-01-30T02:49:35;100527.16;;;1.76;66.82
70200;BME280;57587;55.688;37.600;2024-01-30T02:52:02;100518.53;;;1.74;66.67
70200;BME280;57587;55.688;37.600;2024-01-30T02:54:30;100519.16;;;1.77;66.70
70200;BME280;57587;55.688;37.600;2024-01-30T02:56:57;100508.81;;;1.74;66.38
70200;BME280;57587;55.688;37.600;2024-01-30T02:59:24;100512.91;;;1.78;66.42
70200;BME280;57587;55.688;37.600;2024-01-30T03:01:52;100501.75;;;1.75;66.73
70200;BME280;57587;55.688;37.600;2024-01-30T03:04:20;100515.44;;;1.67;67.27
70200;BME280;57587;55.688;37.600;2024-01-30T03:06:47;100521.16;;;1.74;66.77
70200;BME280;57587;55.688;37.600;2024-01-30T03:09:18;100513.97;;;1.76;66.70
70200;BME280;57587;55.688;37.600;2024-01-30T03:11:45;100524.53;;;1.76;66.91
70200;BME280;57587;55.688;37.600;2024-01-30T03:14:12;100526.53;;;1.72;66.71
70200;BME280;57587;55.688;37.600;2024-01-30T03:16:40;100531.41;;;1.78;66.74
70200;BME280;57587;55.688;37.600;2024-01-30T03:19:07;100528.00;;;1.76;66.89
70200;BME280;57587;55.688;37.600;2024-01-30T03:21:37;100532.16;;;1.80;67.23
70200;BME280;57587;55.688;37.600;2024-01-30T03:24:05;100526.13;;;1.78;66.82
70200;BME280;57587;55.688;37.600;2024-01-30T03:26:32;100543.88;;;1.89;66.91
70200;BME280;57587;55.688;37.600;2024-01-30T03:28:59;100550.50;;;1.95;66.80
70200;BME280;57587;55.688;37.600;2024-01-30T03:31:26;100537.31;;;1.95;66.49
70200;BME280;57587;55.688;37.600;2024-01-30T03:33:54;100531.09;;;1.96;66.56
70200;BME280;57587;55.688;37.600;2024-01-30T03:36:21;100540.28;;;2.03;66.70
70200;BME280;57587;55.688;37.600;2024-01-30T03:38:48;100537.53;;;2.04;67.02
70200;BME280;57587;55.688;37.600;2024-01-30T03:41:15;100541.66;;;2.08;66.36
70200;BME280;57587;55.688;37.600;2024-01-30T03:43:43;100535.19;;;2.13;66.26
70200;BME280;57587;55.688;37.600;2024-01-30T03:46:11;100520.09;;;2.15;66.62
70200;BME280;57587;55.688;37.600;2024-01-30T03:48:39;100535.75;;;2.18;66.69
70200;BME280;57587;55.688;37.600;2024-01-30T03:51:06;100543.53;;;2.19;66.04
70200;BME280;57587;55.688;37.600;2024-01-30T03:53:33;100548.81;;;2.19;66.52
70200;BME280;57587;55.688;37.600;2024-01-30T03:56:00;100544.28;;;2.21;66.22
70200;BME280;57587;55.688;37.600;2024-01-30T03:58:27;100557.28;;;2.24;66.18
70200;BME280;57587;55.688;37.600;2024-01-30T04:00:54;100550.94;;;2.27;65.94
70200;BME280;57587;55.688;37.600;2024-01-30T04:03:22;100556.84;;;2.30;66.15
70200;BME280;57587;55.688;37.600;2024-01-30T04:05:49;100556.31;;;2.25;66.37
70200;BME280;57587;55.688;37.600;2024-01-30T04:08:16;100553.25;;;2.19;66.44
70200;BME280;57587;55.688;37.600;2024-01-30T04:10:43;100554.94;;;2.20;66.57
70200;BME280;57587;55.688;37.600;2024-01-30T04:13:11;100567.22;;;2.21;66.73
70200;BME280;57587;55.688;37.600;2024-01-30T04:15:39;100556.22;;;2.27;66.34
70200;BME280;57587;55.688;37.600;2024-01-30T04:18:06;100556.22;;;2.27;66.19
70200;BME280;57587;55.688;37.600;2024-01-30T04:20:46;100552.97;;;2.23;66.26
70200;BME280;57587;55.688;37.600;2024-01-30T04:23:13;100554.97;;;2.33;66.09
70200;BME280;57587;55.688;37.600;2024-01-30T04:25:40;100550.72;;;2.30;66.00
70200;BME280;57587;55.688;37.600;2024-01-30T04:28:07;100562.22;;;2.29;66.14
70200;BME280;57587;55.688;37.600;2024-01-30T04:30:34;100556.22;;;2.27;66.47
70200;BME280;57587;55.688;37.600;2024-01-30T04:33:01;100542.69;;;2.31;66.60
70200;BME280;57587;55.688;37.600;2024-01-30T04:35:29;100549.69;;;2.33;66.23
70200;BME280;57587;55.688;37.600;2024-01-30T04:37:56;100544.19;;;2.36;66.23
70200;BME280;57587;55.688;37.600;2024-01-30T04:40:23;100547.53;;;2.38;65.77
70200;BME280;57587;55.688;37.600;2024-01-30T04:42:51;100543.00;;;2.40;66.02
70200;BME280;57587;55.688;37.600;2024-01-30T04:45:18;100543.00;;;2.40;65.88
70200;BME280;57587;55.688;37.600;2024-01-30T04:47:45;100543.97;;;2.39;66.21
70200;BME280;57587;55.688;37.600;2024-01-30T04:50:13;100558.50;;;2.44;65.86
70200;BME280;57587;55.688;37.600;2024-01-30T04:52:40;100542.91;;;2.28;65.91
70200;BME280;57587;55.688;37.600;2024-01-30T04:55:07;100556.84;;;2.30;66.35
70200;BME280;57587;55.688;37.600;2024-01-30T04:57:35;100557.25;;;2.37;66.37
70200;BME280;57587;55.688;37.600;2024-01-30T05:00:02;100551.97;;;2.37;66.79
70200;BME280;57587;55.688;37.600;2024-01-30T05:02:30;100546.91;;;2.34;66.69
70200;BME280;57587;55.688;37.600;2024-01-30T05:04:57;100553.56;;;2.40;66.40
70200;BME280;57587;55.688;37.600;2024-01-30T05:07:26;100556.84;;;2.43;66.25
70200;BME280;57587;55.688;37.600;2024-01-30T05:09:53;100553.22;;;2.44;66.25
70200;BME280;57587;55.688;37.600;2024-01-30T05:12:25;100558.31;;;2.47;66.25
70200;BME280;57587;55.688;37.600;2024-01-30T05:14:52;100561.69;;;2.49;66.09
70200;BME280;57587;55.688;37.600;2024-01-30T05:17:20;100556.41;;;2.49;66.38
70200;BME280;57587;55.688;37.600;2024-01-30T05:19:47;100562.53;;;2.50;66.14
70200;BME280;57587;55.688;37.600;2024-01-30T05:22:14;100553.66;;;2.51;66.18
70200;BME280;57587;55.688;37.600;2024-01-30T05:24:42;100551.88;;;2.51;66.26
70200;BME280;57587;55.688;37.600;2024-01-30T05:27:10;100560.41;;;2.55;66.30
70200;BME280;57587;55.688;37.600;2024-01-30T05:29:37;100573.09;;;2.50;66.18
70200;BME280;57587;55.688;37.600;2024-01-30T05:32:04;100562.31;;;2.53;66.42
70200;BME280;57587;55.688;37.600;2024-01-30T05:34:33;100577.03;;;2.57;66.31
70200;BME280;57587;55.688;37.600;2024-01-30T05:37:00;100573.41;;;2.58;66.18
70200;BME280;57587;55.688;37.600;2024-01-30T05:39:28;100575.22;;;2.58;66.50
70200;BME280;57587;55.688;37.600;2024-01-30T05:41:55;100560.28;;;2.57;66.01
70200;BME280;57587;55.688;37.600;2024-01-30T05:44:22;100569.72;;;2.61;66.25
70200;BME280;57587;55.688;37.600;2024-01-30T05:46:49;100564.31;;;2.62;66.26
70200;BME280;57587;55.688;37.600;2024-01-30T05:49:16;100566.72;;;2.65;66.00
70200;BME280;57587;55.688;37.600;2024-01-30T05:51:43;100564.84;;;2.67;66.07
70200;BME280;57587;55.688;37.600;2024-01-30T05:54:11;100571.50;;;2.73;65.99
70200;BME280;57587;55.688;37.600;2024-01-30T05:56:41;100575.59;;;2.77;65.92
70200;BME280;57587;55.688;37.600;2024-01-30T05:59:08;100587.84;;;2.78;65.59
70200;BME280;57587;55.688;37.600;2024-01-30T06:01:35;100587.00;;;2.77;65.64
70200;BME280;57587;55.688;37.600;2024-01-30T06:04:03;100587.41;;;2.84;65.60
70200;BME280;57587;55.688;37.600;2024-01-30T06:06:30;100586.34;;;2.87;65.71
70200;BME280;57587;55.688;37.600;2024-01-30T06:08:57;100598.38;;;2.91;65.48
70200;BME280;57587;55.688;37.600;2024-01-30T06:11:24;100593.53;;;2.85;65.65
70200;BME280;57587;55.688;37.600;2024-01-30T06:13:51;100594.19;;;2.88;65.75
70200;BME280;57587;55.688;37.600;2024-01-30T06:16:19;100595.31;;;2.97;65.41
70200;BME280;57587;55.688;37.600;2024-01-30T06:18:48;100590.97;;;2.96;65.39
70200;BME280;57587;55.688;37.600;2024-01-30T06:21:15;100603.13;;;2.98;65.37
70200;BME280;57587;55.688;37.600;2024-01-30T06:23:42;100599.44;;;3.01;65.64
70200;BME280;57587;55.688;37.600;2024-01-30T06:26:10;100602.16;;;2.99;65.38
70200;BME280;57587;55.688;37.600;2024-01-30T06:28:37;100594.16;;;3.01;65.62
70200;BME280;57587;55.688;37.600;2024-01-30T06:31:04;100601.72;;;3.06;65.44
70200;BME280;57587;55.688;37.600;2024-01-30T06:33:31;100602.34;;;3.09;65.56
70200;BME280;57587;55.688;37.600;2024-01-30T06:35:59;100608.16;;;3.14;64.57
70200;BME280;57587;55.688;37.600;2024-01-30T06:38:26;100613.22;;;3.17;64.78
70200;BME280;57587;55.688;37.600;2024-01-30T06:40:53;100613.44;;;3.14;64.87
70200;BME280;57587;55.688;37.600;2024-01-30T06:43:22;100609.75;;;3.17;64.91
70200;BME280;57587;55.688;37.600;2024-01-30T06:45:49;100605.06;;;3.20;64.58
70200;BME280;57587;55.688;37.600;2024-01-30T06:48:17;100602.81;;;3.27;64.69
70200;BME280;57587;55.688;37.600;2024-01-30T06:50:44;100612.56;;;3.27;64.53
70200;BME280;57587;55.688;37.600;2024-01-30T06:53:12;100612.66;;;3.25;64.74
70200;BME280;57587;55.688;37.600;2024-01-30T06:55:39;100616.06;;;3.27;64.83
70200;BME280;57587;55.688;37.600;2024-01-30T06:58:06;100614.69;;;3.21;64.79
70200;BME280;57587;55.688;37.600;2024-01-30T07:00:33;100618.41;;;3.19;64.64
70200;BME280;57587;55.688;37.600;2024-01-30T07:03:00;100620.72;;;3.23;64.69
70200;BME280;57587;55.688;37.600;2024-01-30T07:05:28;100620.38;;;3.28;64.76
70200;BME280;57587;55.688;37.600;2024-01-30T07:07:55;100616.88;;;3.28;64.62
70200;BME280;57587;55.688;37.600;2024-01-30T07:10:22;100619.03;;;3.22;64.45
70200;BME280;57587;55.688;37.600;2024-01-30T07:12:49;100625.50;;;3.18;64.70
70200;BME280;57587;55.688;37.600;2024-01-30T07:15:16;100632.59;;;3.18;64.89
70200;BME280;57587;55.688;37.600;2024-01-30T07:17:46;100629.09;;;3.17;64.92
70200;BME280;57587;55.688;37.600;2024-01-30T07:20:13;100634.16;;;3.20;65.05
70200;BME280;57587;55.688;37.600;2024-01-30T07:22:44;100636.59;;;3.23;64.99
70200;BME280;57587;55.688;37.600;2024-01-30T07:25:11;100643.34;;;3.28;64.95
70200;BME280;57587;55.688;37.600;2024-01-30T07:27:38;100632.44;;;3.32;64.57
70200;BME280;57587;55.688;37.600;2024-01-30T07:30:06;100635.72;;;3.36;64.73
70200;BME280;57587;55.688;37.600;2024-01-30T07:32:33;100648.25;;;3.45;64.74
70200;BME280;57587;55.688;37.600;2024-01-30T07:35:00;100633.13;;;3.47;64.17
70200;BME280;57587;55.688;37.600;2024-01-30T07:37:35;100639.25;;;3.47;64.55
70200;BME280;57587;55.688;37.600;2024-01-30T07:40:03;100645.78;;;3.55;64.11
70200;BME280;57587;55.688;37.600;2024-01-30T07:42:31;100656.16;;;3.58;63.98
70200;BME280;57587;55.688;37.600;2024-01-30T07:44:58;100648.81;;;3.61;63.97
70200;BME280;57587;55.688;37.600;2024-01-30T07:47:25;100644.66;;;3.70;63.44
70200;BME280;57587;55.688;37.600;2024-01-30T07:49:53;100642.84;;;3.70;63.29
70200;BME280;57587;55.688;37.600;2024-01-30T07:52:21;100652.69;;;3.68;63.58
70200;BME280;57587;55.688;37.600;2024-01-30T07:54:49;100647.19;;;3.72;63.27
70200;BME280;57587;55.688;37.600;2024-01-30T07:57:17;100651.97;;;3.66;63.41
70200;BME280;57587;55.688;37.600;2024-01-30T07:59:45;100640.09;;;3.72;63.82
70200;BME280;57587;55.688;37.600;2024-01-30T08:02:13;100634.22;;;3.80;63.13
70200;BME280;57587;55.688;37.600;2024-01-30T08:04:40;100640.13;;;3.83;63.14
70200;BME280;57587;55.688;37.600;2024-01-30T08:07:07;100637.88;;;3.90;63.11
70200;BME280;57587;55.688;37.600;2024-01-30T08:09:35;100643.06;;;3.91;62.78
70200;BME280;57587;55.688;37.600;2024-01-30T08:12:02;100645.81;;;3.90;63.17
70200;BME280;57587;55.688;37.600;2024-01-30T08:14:30;100645.19;;;3.86;63.31
70200;BME280;57587;55.688;37.600;2024-01-30T08:16:57;100625.59;;;3.89;63.18
70200;BME280;57587;55.688;37.600;2024-01-30T08:19:24;100636.94;;;4.02;62.52
70200;BME280;57587;55.688;37.600;2024-01-30T08:21:51;100638.91;;;4.11;62.28
70200;BME280;57587;55.688;37.600;2024-01-30T08:24:18;100645.91;;;4.12;62.33
70200;BME280;57587;55.688;37.600;2024-01-30T08:26:48;100644.19;;;4.11;62.10
70200;BME280;57587;55.688;37.600;2024-01-30T08:29:18;100640.84;;;4.09;62.63
70200;BME280;57587;55.688;37.600;2024-01-30T08:31:46;100646.84;;;4.00;62.39
70200;BME280;57587;55.688;37.600;2024-01-30T08:34:13;100649.00;;;4.06;62.67
70200;BME280;57587;55.688;37.600;2024-01-30T08:36:40;100651.44;;;4.09;62.20
70200;BME280;57587;55.688;37.600;2024-01-30T08:39:08;100656.97;;;4.06;62.62
70200;BME280;57587;55.688;37.600;2024-01-30T08:41:35;100643.44;;;3.98;62.73
70200;BME280;57587;55.688;37.600;2024-01-30T08:44:02;100630.19;;;3.98;62.62
70200;BME280;57587;55.688;37.600;2024-01-30T08:46:31;100645.34;;;3.96;62.21
70200;BME280;57587;55.688;37.600;2024-01-30T08:48:58;100640.19;;;3.95;62.84
70200;BME280;57587;55.688;37.600;2024-01-30T08:51:26;100632.84;;;3.98;62.78
70200;BME280;57587;55.688;37.600;2024-01-30T08:53:53;100633.59;;;4.00;62.50
70200;BME280;57587;55.688;37.600;2024-01-30T08:56:21;100637.44;;;4.07;62.83
70200;BME280;57587;55.688;37.600;2024-01-30T08:58:48;100634.56;;;4.10;62.86
70200;BME280;57587;55.688;37.600;2024-01-30T09:01:15;100630.84;;;4.13;62.63
70200;BME280;57587;55.688;37.600;2024-01-30T09:03:42;100628.53;;;4.08;62.41
70200;BME280;57587;55.688;37.600;2024-01-30T09:06:12;100655.91;;;4.09;63.12
70200;BME280;57587;55.688;37.600;2024-01-30T09:08:40;100640.84;;;4.09;62.75
70200;BME280;57587;55.688;37.600;2024-01-30T09:11:14;100646.50;;;4.16;62.57
70200;BME280;57587;55.688;37.600;2024-01-30T09:13:42;100641.81;;;4.20;62.80
70200;BME280;57587;55.688;37.600;2024-01-30T09:16:09;100642.28;;;4.13;62.74
70200;BME280;57587;55.688;37.600;2024-01-30T09:18:36;100643.72;;;4.18;62.21
70200;BME280;57587;55.688;37.600;2024-01-30T09:21:04;100637.72;;;4.15;62.37
70200;BME280;57587;55.688;37.600;2024-01-30T09:23:31;100643.72;;;4.18;62.68
70200;BME280;57587;55.688;37.600;2024-01-30T09:25:58;100642.78;;;4.19;62.45
70200;BME280;57587;55.688;37.600;2024-01-30T09:28:27;100643.03;;;4.15;62.25
70200;BME280;57587;55.688;37.600;2024-01-30T09:31:00;100637.72;;;4.27;61.65
70200;BME280;57587;55.688;37.600;2024-01-30T09:33:29;100643.28;;;4.24;62.08
70200;BME280;57587;55.688;37.600;2024-01-30T09:35:56;100641.34;;;4.26;62.02
70200;BME280;57587;55.688;37.600;2024-01-30T09:38:24;100634.25;;;4.26;61.98
70200;BME280;57587;55.688;37.600;2024-01-30T09:40:54;100634.75;;;4.31;61.83
70200;BME280;57587;55.688;37.600;2024-01-30T09:43:26;100636.78;;;4.39;61.28
70200;BME280;57587;55.688;37.600;2024-01-30T09:45:57;100638.00;;;4.35;61.63
70200;BME280;57587;55.688;37.600;2024-01-30T09:48:26;100635.81;;;4.29;62.02
70200;BME280;57587;55.688;37.600;2024-01-30T09:50:54;100637.03;;;4.36;61.71
70200;BME280;57587;55.688;37.600;2024-01-30T09:53:22;100634.28;;;4.37;62.09
70200;BME280;57587;55.688;37.600;2024-01-30T09:55:50;100631.25;;;4.42;61.67
70200;BME280;57587;55.688;37.600;2024-01-30T09:58:17;100624.53;;;4.49;61.66
70200;BME280;57587;55.688;37.600;2024-01-30T10:00:45;100619.81;;;4.42;61.37
70200;BME280;57587;55.688;37.600;2024-01-30T10:03:12;100623.69;;;4.37;61.83
70200;BME280;57587;55.688;37.600;2024-01-30T10:05:44;100617.31;;;4.40;61.77
70200;BME280;57587;55.688;37.600;2024-01-30T10:08:17;100621.72;;;4.39;62.02
70200;BME280;57587;55.688;37.600;2024-01-30T10:10:47;100633.44;;;4.37;62.19
70200;BME280;57587;55.688;37.600;2024-01-30T10:13:14;100632.34;;;4.39;62.01
70200;BME280;57587;55.688;37.600;2024-01-30T10:15:41;100636.56;;;4.42;62.20
70200;BME280;57587;55.688;37.600;2024-01-30T10:18:09;100625.25;;;4.40;61.56
70200;BME280;57587;55.688;37.600;2024-01-30T10:20:37;100621.72;;;4.39;61.47
70200;BME280;57587;55.688;37.600;2024-01-30T10:23:08;100632.47;;;4.38;61.96
70200;BME280;57587;55.688;37.600;2024-01-30T10:25:36;100632.22;;;4.41;62.13
70200;BME280;57587;55.688;37.600;2024-01-30T10:28:04;100622.84;;;4.37;61.89
70200;BME280;57587;55.688;37.600;2024-01-30T10:30:32;100635.13;;;4.38;61.93
70200;BME280;57587;55.688;37.600;2024-01-30T10:32:59;100638.03;;;4.46;62.07
70200;BME280;57587;55.688;37.600;2024-01-30T10:35:26;100635.00;;;4.51;61.09
70200;BME280;57587;55.688;37.600;2024-01-30T10:37:56;100641.88;;;4.53;61.71
70200;BME280;57587;55.688;37.600;2024-01-30T10:40:28;100625.03;;;4.43;62.16
70200;BME280;57587;55.688;37.600;2024-01-30T10:42:56;100628.59;;;4.42;61.96
70200;BME280;57587;55.688;37.600;2024-01-30T10:45:26;100632.94;;;4.32;61.96
70200;BME280;57587;55.688;37.600;2024-01-30T10:47:55;100644.16;;;4.35;62.13
70200;BME280;57587;55.688;37.600;2024-01-30T10:50:25;100638.97;;;4.34;62.22
70200;BME280;57587;55.688;37.600;2024-01-30T10:52:54;100630.28;;;4.32;62.04
70200;BME280;57587;55.688;37.600;2024-01-30T10:55:23;100633.16;;;4.29;62.42
70200;BME280;57587;55.688;37.600;2024-01-30T10:57:57;100626.44;;;4.25;62.21
70200;BME280;57587;55.688;37.600;2024-01-30T11:00:26;100627.63;;;4.32;62.20
70200;BME280;57587;55.688;37.600;2024-01-30T11:02:54;100629.81;;;4.38;62.34
70200;BME280;57587;55.688;37.600;2024-01-30T11:05:25;100638.28;;;4.43;61.89
70200;BME280;57587;55.688;37.600;2024-01-30T11:08:14;100635.97;;;4.50;61.90
70200;BME280;57587;55.688;37.600;2024-01-30T11:10:46;100630.78;;;4.48;61.70
70200;BME280;57587;55.688;37.600;2024-01-30T11:13:14;100641.03;;;4.53;61.53
70200;BME280;57587;55.688;37.600;2024-01-30T11:15:42;100635.63;;;4.54;62.04
70200;BME280;57587;55.688;37.600;2024-01-30T11:18:09;100634.53;;;4.57;61.84
70200;BME280;57587;55.688;37.600;2024-01-30T11:20:37;100640.44;;;4.60;61.66
70200;BME280;57587;55.688;37.600;2024-01-30T11:23:04;100638.63;;;4.61;61.92
70200;BME280;57587;55.688;37.600;2024-01-30T11:25:35;100624.66;;;4.59;61.46
70200;BME280;57587;55.688;37.600;2024-01-30T11:28:03;100635.13;;;4.60;61.12
70200;BME280;57587;55.688;37.600;2024-01-30T11:30:32;100635.38;;;4.57;61.15
70200;BME280;57587;55.688;37.600;2024-01-30T11:33:12;100643.81;;;4.62;61.87
70200;BME280;57587;55.688;37.600;2024-01-30T11:35:40;100634.06;;;4.63;61.26
70200;BME280;57587;55.688;37.600;2024-01-30T11:38:13;100636.84;;;4.61;61.42
70200;BME280;57587;55.688;37.600;2024-01-30T11:40:40;100637.31;;;4.55;61.58
70200;BME280;57587;55.688;37.600;2024-01-30T11:43:09;100637.41;;;4.54;61.76
70200;BME280;57587;55.688;37.600;2024-01-30T11:45:39;100642.72;;;4.54;61.43
70200;BME280;57587;55.688;37.600;2024-01-30T11:48:06;100657.78;;;4.53;61.83
70200;BME280;57587;55.688;37.600;2024-01-30T11:50:39;100662.72;;;4.47;61.26
70200;BME280;57587;55.688;37.600;2024-01-30T11:53:07;100669.38;;;4.52;61.70
70200;BME280;57587;55.688;37.600;2024-01-30T11:55:35;100672.25;;;4.49;61.64
70200;BME280;57587;55.688;37.600;2024-01-30T11:58:04;100682.94;;;4.48;62.20
70200;BME280;57587;55.688;37.600;2024-01-30T12:00:32;100678.13;;;4.42;62.45
70200;BME280;57587;55.688;37.600;2024-01-30T12:03:01;100671.00;;;4.42;62.11
70200;BME280;57587;55.688;37.600;2024-01-30T12:05:30;100674.97;;;4.36;62.27
70200;BME280;57587;55.688;37.600;2024-01-30T12:07:58;100672.22;;;4.38;62.33
70200;BME280;57587;55.688;37.600;2024-01-30T12:10:27;100680.25;;;4.36;62.27
70200;BME280;57587;55.688;37.600;2024-01-30T12:12:56;100675.19;;;4.33;62.17
70200;BME280;57587;55.688;37.600;2024-01-30T12:15:24;100671.00;;;4.31;62.44
70200;BME280;57587;55.688;37.600;2024-01-30T12:17:51;100668.59;;;4.28;62.68
70200;BME280;57587;55.688;37.600;2024-01-30T12:20:22;100660.13;;;4.23;62.64
70200;BME280;57587;55.688;37.600;2024-01-30T12:22:50;100676.13;;;4.21;62.17
70200;BME280;57587;55.688;37.600;2024-01-30T12:25:20;100665.44;;;4.23;62.18
70200;BME280;57587;55.688;37.600;2024-01-30T12:27:49;100679.28;;;4.26;63.00
70200;BME280;57587;55.688;37.600;2024-01-30T12:30:20;100682.53;;;4.30;62.64
70200;BME280;57587;55.688;37.600;2024-01-30T12:32:51;100681.84;;;4.28;63.30
70200;BME280;57587;55.688;37.600;2024-01-30T12:35:21;100677.97;;;4.32;62.56
70200;BME280;57587;55.688;37.600;2024-01-30T12:37:49;100678.31;;;4.27;62.50
70200;BME280;57587;55.688;37.600;2024-01-30T12:40:17;100671.69;;;4.22;62.85
70200;BME280;57587;55.688;37.600;2024-01-30T12:42:48;100672.31;;;4.25;62.57
70200;BME280;57587;55.688;37.600;2024-01-30T12:45:18;100673.16;;;4.26;62.71
70200;BME280;57587;55.688;37.600;2024-01-30T12:47:50;100667.72;;;4.27;62.68
70200;BME280;57587;55.688;37.600;2024-01-30T12:50:17;100678.72;;;4.34;62.71
70200;BME280;57587;55.688;37.600;2024-01-30T12:52:45;100672.56;;;4.33;62.07
70200;BME280;57587;55.688;37.600;2024-01-30T12:55:25;100686.44;;;4.37;62.54